sensor_id;sensor_type;location;lat;lon;timestamp;temperature;humidity
18575;DHT22;9417;16.484;102.872;2023-08-06T00:00:42;26.50;97.10
18575;DHT22;9417;16.484;102.872;2023-08-06T00:02:50;26.50;97.20
18575;DHT22;9417;16.484;102.872;2023-08-06T00:04:57;26.50;97.20
18575;DHT22;9417;16.484;102.872;2023-08-06T00:07:05;26.50;97.10
18575;DHT22;9417;16.484;102.872;2023-08-06T00:09:11;26.50;97.10
18575;DHT22;9417;16.484;102.872;2023-08-06T00:11:18;26.50;97.10
18575;DHT22;9417;16.484;102.872;2023-08-06T00:13:26;26.50;97.10
18575;DHT22;9417;16.484;102.872;2023-08-06T00:15:33;26.50;97.20
18575;DHT22;9417;16.484;102.872;2023-08-06T00:17:43;26.50;97.20
18575;DHT22;9417;16.484;102.872;2023-08-06T00:19:50;26.50;97.30
18575;DHT22;9417;16.484;102.872;2023-08-06T00:21:57;26.50;97.40
18575;DHT22;9417;16.484;102.872;2023-08-06T00:24:06;26.50;97.40
18575;DHT22;9417;16.484;102.872;2023-08-06T00:26:14;26.50;97.50
18575;DHT22;9417;16.484;102.872;2023-08-06T00:28:21;26.60;97.50
18575;DHT22;9417;16.484;102.872;2023-08-06T00:30:29;26.60;97.50
18575;DHT22;9417;16.484;102.872;2023-08-06T00:32:36;26.50;97.50
18575;DHT22;9417;16.484;102.872;2023-08-06T00:34:46;26.60;97.40
18575;DHT22;9417;16.484;102.872;2023-08-06T00:36:54;26.60;97.40
18575;DHT22;9417;16.484;102.872;2023-08-06T00:39:01;26.60;97.40
18575;DHT22;9417;16.484;102.872;2023-08-06T00:41:09;26.60;97.50
18575;DHT22;9417;16.484;102.872;2023-08-06T00:43:16;26.60;97.50
18575;DHT22;9417;16.484;102.872;2023-08-06T00:45:24;26.60;97.60
18575;DHT22;9417;16.484;102.872;2023-08-06T00:47:33;26.60;97.50
18575;DHT22;9417;16.484;102.872;2023-08-06T00:49:41;26.60;97.50
18575;DHT22;9417;16.484;102.872;2023-08-06T00:51:51;26.60;97.40
18575;DHT22;9417;16.484;102.872;2023-08-06T00:53:58;26.70;97.40
18575;DHT22;9417;16.484;102.872;2023-08-06T00:56:05;26.70;97.30
18575;DHT22;9417;16.484;102.872;2023-08-06T00:58:13;26.70;97.20
18575;DHT22;9417;16.484;102.872;2023-08-06T01:00:22;26.70;97.10
18575;DHT22;9417;16.484;102.872;2023-08-06T01:02:30;26.80;97.10
18575;DHT22;9417;16.484;102.872;2023-08-06T01:04:38;26.70;97.00
18575;DHT22;9417;16.484;102.872;2023-08-06T01:06:52;26.90;97.00
18575;DHT22;9417;16.484;102.872;2023-08-06T01:09:11;26.80;96.90
18575;DHT22;9417;16.484;102.872;2023-08-06T01:11:26;26.80;96.80
18575;DHT22;9417;16.484;102.872;2023-08-06T01:13:41;26.80;96.80
18575;DHT22;9417;16.484;102.872;2023-08-06T01:15:51;26.80;96.90
18575;DHT22;9417;16.484;102.872;2023-08-06T01:18:01;26.90;96.80
18575;DHT22;9417;16.484;102.872;2023-08-06T01:20:10;26.90;96.60
18575;DHT22;9417;16.484;102.872;2023-08-06T01:22:19;26.90;96.50
18575;DHT22;9417;16.484;102.872;2023-08-06T01:24:26;27.00;96.50
18575;DHT22;9417;16.484;102.872;2023-08-06T01:26:37;27.00;96.30
18575;DHT22;9417;16.484;102.872;2023-08-06T01:28:52;27.00;96.20
18575;DHT22;9417;16.484;102.872;2023-08-06T01:31:03;27.00;95.90
18575;DHT22;9417;16.484;102.872;2023-08-06T01:33:19;27.10;95.70
18575;DHT22;9417;16.484;102.872;2023-08-06T01:35:28;27.10;95.40
18575;DHT22;9417;16.484;102.872;2023-08-06T01:37:38;27.10;95.40
18575;DHT22;9417;16.484;102.872;2023-08-06T01:39:46;27.10;95.20
18575;DHT22;9417;16.484;102.872;2023-08-06T01:41:53;27.20;95.10
18575;DHT22;9417;16.484;102.872;2023-08-06T01:44:01;27.20;95.10
18575;DHT22;9417;16.484;102.872;2023-08-06T01:46:08;27.20;95.00
18575;DHT22;9417;16.484;102.872;2023-08-06T01:48:16;27.20;94.80
18575;DHT22;9417;16.484;102.872;2023-08-06T01:50:22;27.20;94.60
18575;DHT22;9417;16.484;102.872;2023-08-06T01:52:29;27.20;94.50
18575;DHT22;9417;16.484;102.872;2023-08-06T01:54:38;27.20;94.20
18575;DHT22;9417;16.484;102.872;2023-08-06T01:56:46;27.20;94.20
18575;DHT22;9417;16.484;102.872;2023-08-06T01:58:54;27.30;94.20
18575;DHT22;9417;16.484;102.872;2023-08-06T02:01:02;27.30;94.10
18575;DHT22;9417;16.484;102.872;2023-08-06T02:03:09;27.20;94.10
18575;DHT22;9417;16.484;102.872;2023-08-06T02:05:17;27.30;94.10
18575;DHT22;9417;16.484;102.872;2023-08-06T02:07:24;27.30;93.80
18575;DHT22;9417;16.484;102.872;2023-08-06T02:09:33;27.30;93.60
18575;DHT22;9417;16.484;102.872;2023-08-06T02:11:43;27.30;93.50
18575;DHT22;9417;16.484;102.872;2023-08-06T02:13:50;27.30;93.30
18575;DHT22;9417;16.484;102.872;2023-08-06T02:15:57;27.30;93.30
18575;DHT22;9417;16.484;102.872;2023-08-06T02:18:05;27.30;93.10
18575;DHT22;9417;16.484;102.872;2023-08-06T02:20:12;27.30;92.90
18575;DHT22;9417;16.484;102.872;2023-08-06T02:22:20;27.30;92.70
18575;DHT22;9417;16.484;102.872;2023-08-06T02:24:28;27.30;92.70
18575;DHT22;9417;16.484;102.872;2023-08-06T02:26:35;27.30;92.90
18575;DHT22;9417;16.484;102.872;2023-08-06T02:28:45;27.30;93.00
18575;DHT22;9417;16.484;102.872;2023-08-06T02:30:52;27.40;93.00
18575;DHT22;9417;16.484;102.872;2023-08-06T02:33:00;27.40;93.00
18575;DHT22;9417;16.484;102.872;2023-08-06T02:35:08;27.40;93.00
18575;DHT22;9417;16.484;102.872;2023-08-06T02:37:15;27.50;93.00
18575;DHT22;9417;16.484;102.872;2023-08-06T02:39:22;27.50;92.70
18575;DHT22;9417;16.484;102.872;2023-08-06T02:41:29;27.50;92.70
18575;DHT22;9417;16.484;102.872;2023-08-06T02:43:37;27.50;92.60
18575;DHT22;9417;16.484;102.872;2023-08-06T02:45:46;27.50;92.60
18575;DHT22;9417;16.484;102.872;2023-08-06T02:47:53;27.50;92.60
18575;DHT22;9417;16.484;102.872;2023-08-06T02:50:01;27.60;92.60
18575;DHT22;9417;16.484;102.872;2023-08-06T02:52:09;27.60;92.50
18575;DHT22;9417;16.484;102.872;2023-08-06T02:54:17;27.50;92.70
18575;DHT22;9417;16.484;102.872;2023-08-06T02:56:24;27.50;92.70
18575;DHT22;9417;16.484;102.872;2023-08-06T02:58:43;27.50;92.60
18575;DHT22;9417;16.484;102.872;2023-08-06T03:01:04;27.60;92.60
18575;DHT22;9417;16.484;102.872;2023-08-06T03:03:22;27.60;92.60
18575;DHT22;9417;16.484;102.872;2023-08-06T03:05:33;27.60;92.80
18575;DHT22;9417;16.484;102.872;2023-08-06T03:07:41;27.50;92.80
18575;DHT22;9417;16.484;102.872;2023-08-06T03:09:56;27.50;93.10
18575;DHT22;9417;16.484;102.872;2023-08-06T03:12:07;27.60;93.10
18575;DHT22;9417;16.484;102.872;2023-08-06T03:14:15;27.60;93.20
18575;DHT22;9417;16.484;102.872;2023-08-06T03:16:24;27.60;93.20
18575;DHT22;9417;16.484;102.872;2023-08-06T03:18:32;27.60;93.40
18575;DHT22;9417;16.484;102.872;2023-08-06T03:20:42;27.60;93.40
18575;DHT22;9417;16.484;102.872;2023-08-06T03:22:50;27.70;93.60
18575;DHT22;9417;16.484;102.872;2023-08-06T03:24:58;27.70;93.70
18575;DHT22;9417;16.484;102.872;2023-08-06T03:27:06;27.80;93.80
18575;DHT22;9417;16.484;102.872;2023-08-06T03:29:16;27.80;93.80
18575;DHT22;9417;16.484;102.872;2023-08-06T03:31:25;27.80;93.40
18575;DHT22;9417;16.484;102.872;2023-08-06T03:33:32;27.80;93.10
18575;DHT22;9417;16.484;102.872;2023-08-06T03:35:44;27.90;92.80
18575;DHT22;9417;16.484;102.872;2023-08-06T03:37:52;27.90;92.40
18575;DHT22;9417;16.484;102.872;2023-08-06T03:40:00;27.90;92.30
18575;DHT22;9417;16.484;102.872;2023-08-06T03:42:10;28.00;92.30
18575;DHT22;9417;16.484;102.872;2023-08-06T03:44:17;28.00;92.00
18575;DHT22;9417;16.484;102.872;2023-08-06T03:46:27;28.00;91.00
18575;DHT22;9417;16.484;102.872;2023-08-06T03:48:38;28.00;90.70
18575;DHT22;9417;16.484;102.872;2023-08-06T03:50:46;28.00;90.50
18575;DHT22;9417;16.484;102.872;2023-08-06T03:52:54;28.00;90.30
18575;DHT22;9417;16.484;102.872;2023-08-06T03:55:04;28.00;90.20
18575;DHT22;9417;16.484;102.872;2023-08-06T03:57:11;28.00;90.00
18575;DHT22;9417;16.484;102.872;2023-08-06T03:59:18;28.00;90.00
18575;DHT22;9417;16.484;102.872;2023-08-06T04:01:27;28.10;89.90
18575;DHT22;9417;16.484;102.872;2023-08-06T04:03:35;28.10;90.10
18575;DHT22;9417;16.484;102.872;2023-08-06T04:05:42;28.10;90.10
18575;DHT22;9417;16.484;102.872;2023-08-06T04:07:50;28.10;89.90
18575;DHT22;9417;16.484;102.872;2023-08-06T04:09:58;28.10;90.10
18575;DHT22;9417;16.484;102.872;2023-08-06T04:12:07;28.10;90.30
18575;DHT22;9417;16.484;102.872;2023-08-06T04:14:14;28.10;90.40
18575;DHT22;9417;16.484;102.872;2023-08-06T04:16:22;28.10;90.20
18575;DHT22;9417;16.484;102.872;2023-08-06T04:18:31;28.20;90.20
18575;DHT22;9417;16.484;102.872;2023-08-06T04:20:43;28.20;89.90
18575;DHT22;9417;16.484;102.872;2023-08-06T04:22:51;28.20;89.70
18575;DHT22;9417;16.484;102.872;2023-08-06T04:24:59;28.20;89.60
18575;DHT22;9417;16.484;102.872;2023-08-06T04:27:06;28.20;89.20
18575;DHT22;9417;16.484;102.872;2023-08-06T04:29:14;28.20;88.90
18575;DHT22;9417;16.484;102.872;2023-08-06T04:31:21;28.20;89.00
18575;DHT22;9417;16.484;102.872;2023-08-06T04:33:32;28.20;88.90
18575;DHT22;9417;16.484;102.872;2023-08-06T04:35:43;28.20;88.80
18575;DHT22;9417;16.484;102.872;2023-08-06T04:37:51;28.20;88.80
18575;DHT22;9417;16.484;102.872;2023-08-06T04:39:58;28.20;89.00
18575;DHT22;9417;16.484;102.872;2023-08-06T04:42:06;28.20;88.80
18575;DHT22;9417;16.484;102.872;2023-08-06T04:44:12;28.20;88.60
18575;DHT22;9417;16.484;102.872;2023-08-06T04:46:20;28.20;88.60
18575;DHT22;9417;16.484;102.872;2023-08-06T04:48:27;28.20;88.70
18575;DHT22;9417;16.484;102.872;2023-08-06T04:50:37;28.10;88.70
18575;DHT22;9417;16.484;102.872;2023-08-06T04:52:44;28.10;88.90
18575;DHT22;9417;16.484;102.872;2023-08-06T04:54:51;28.10;89.20
18575;DHT22;9417;16.484;102.872;2023-08-06T04:56:59;28.10;89.30
18575;DHT22;9417;16.484;102.872;2023-08-06T04:59:06;28.10;89.30
18575;DHT22;9417;16.484;102.872;2023-08-06T05:01:14;28.00;89.00
18575;DHT22;9417;16.484;102.872;2023-08-06T05:03:21;28.10;89.00
18575;DHT22;9417;16.484;102.872;2023-08-06T05:05:29;28.00;88.80
18575;DHT22;9417;16.484;102.872;2023-08-06T05:07:38;28.00;88.80
18575;DHT22;9417;16.484;102.872;2023-08-06T05:09:45;28.10;88.80
18575;DHT22;9417;16.484;102.872;2023-08-06T05:11:53;28.10;88.70
18575;DHT22;9417;16.484;102.872;2023-08-06T05:14:00;28.10;88.60
18575;DHT22;9417;16.484;102.872;2023-08-06T05:16:08;28.10;88.70
18575;DHT22;9417;16.484;102.872;2023-08-06T05:18:15;28.10;88.80
18575;DHT22;9417;16.484;102.872;2023-08-06T05:20:23;28.20;89.00
18575;DHT22;9417;16.484;102.872;2023-08-06T05:22:30;28.20;89.10
18575;DHT22;9417;16.484;102.872;2023-08-06T05:24:39;28.20;89.30
18575;DHT22;9417;16.484;102.872;2023-08-06T05:26:47;28.20;89.10
18575;DHT22;9417;16.484;102.872;2023-08-06T05:28:54;28.20;89.20
18575;DHT22;9417;16.484;102.872;2023-08-06T05:31:04;28.30;89.20
18575;DHT22;9417;16.484;102.872;2023-08-06T05:33:12;28.30;89.10
18575;DHT22;9417;16.484;102.872;2023-08-06T05:35:19;28.30;89.00
18575;DHT22;9417;16.484;102.872;2023-08-06T05:37:26;28.30;89.10
18575;DHT22;9417;16.484;102.872;2023-08-06T05:39:34;28.30;88.60
18575;DHT22;9417;16.484;102.872;2023-08-06T05:41:43;28.30;88.20
18575;DHT22;9417;16.484;102.872;2023-08-06T05:43:51;28.40;88.20
18575;DHT22;9417;16.484;102.872;2023-08-06T05:45:58;28.40;88.30
18575;DHT22;9417;16.484;102.872;2023-08-06T05:48:06;28.40;88.40
18575;DHT22;9417;16.484;102.872;2023-08-06T05:50:13;28.50;88.30
18575;DHT22;9417;16.484;102.872;2023-08-06T05:52:21;28.60;88.10
18575;DHT22;9417;16.484;102.872;2023-08-06T05:54:28;28.60;87.40
18575;DHT22;9417;16.484;102.872;2023-08-06T05:56:36;28.70;87.00
18575;DHT22;9417;16.484;102.872;2023-08-06T05:58:46;28.70;86.60
18575;DHT22;9417;16.484;102.872;2023-08-06T06:00:55;28.80;86.30
18575;DHT22;9417;16.484;102.872;2023-08-06T06:03:02;28.80;86.20
18575;DHT22;9417;16.484;102.872;2023-08-06T06:05:10;28.90;85.90
18575;DHT22;9417;16.484;102.872;2023-08-06T06:07:18;28.90;86.00
18575;DHT22;9417;16.484;102.872;2023-08-06T06:09:25;29.00;86.00
18575;DHT22;9417;16.484;102.872;2023-08-06T06:11:32;29.00;85.50
18575;DHT22;9417;16.484;102.872;2023-08-06T06:13:40;29.00;85.10
18575;DHT22;9417;16.484;102.872;2023-08-06T06:15:49;29.10;84.80
18575;DHT22;9417;16.484;102.872;2023-08-06T06:17:56;29.10;84.70
18575;DHT22;9417;16.484;102.872;2023-08-06T06:20:05;29.10;84.20
18575;DHT22;9417;16.484;102.872;2023-08-06T06:22:12;29.00;83.90
18575;DHT22;9417;16.484;102.872;2023-08-06T06:24:20;29.00;83.90
18575;DHT22;9417;16.484;102.872;2023-08-06T06:26:27;29.00;84.10
18575;DHT22;9417;16.484;102.872;2023-08-06T06:28:35;29.00;84.40
18575;DHT22;9417;16.484;102.872;2023-08-06T06:30:42;29.00;84.60
18575;DHT22;9417;16.484;102.872;2023-08-06T06:32:52;29.00;84.70
18575;DHT22;9417;16.484;102.872;2023-08-06T06:34:59;29.00;84.80
18575;DHT22;9417;16.484;102.872;2023-08-06T06:37:08;29.00;85.00
18575;DHT22;9417;16.484;102.872;2023-08-06T06:39:15;29.00;85.00
18575;DHT22;9417;16.484;102.872;2023-08-06T06:41:22;29.00;84.80
18575;DHT22;9417;16.484;102.872;2023-08-06T06:43:38;29.00;84.80
18575;DHT22;9417;16.484;102.872;2023-08-06T06:45:46;29.00;84.70
18575;DHT22;9417;16.484;102.872;2023-08-06T06:47:55;29.00;84.70
18575;DHT22;9417;16.484;102.872;2023-08-06T06:50:04;29.00;84.80
18575;DHT22;9417;16.484;102.872;2023-08-06T06:52:11;29.00;85.10
18575;DHT22;9417;16.484;102.872;2023-08-06T06:54:18;29.00;85.00
18575;DHT22;9417;16.484;102.872;2023-08-06T06:56:26;29.00;84.90
18575;DHT22;9417;16.484;102.872;2023-08-06T06:58:34;29.00;85.00
18575;DHT22;9417;16.484;102.872;2023-08-06T07:00:41;28.90;85.40
18575;DHT22;9417;16.484;102.872;2023-08-06T07:02:49;28.90;85.90
18575;DHT22;9417;16.484;102.872;2023-08-06T07:04:59;28.90;86.10
18575;DHT22;9417;16.484;102.872;2023-08-06T07:07:06;28.90;86.10
18575;DHT22;9417;16.484;102.872;2023-08-06T07:09:14;28.90;85.70
18575;DHT22;9417;16.484;102.872;2023-08-06T07:11:21;28.90;85.40
18575;DHT22;9417;16.484;102.872;2023-08-06T07:13:28;28.90;85.30
18575;DHT22;9417;16.484;102.872;2023-08-06T07:15:36;28.90;85.40
18575;DHT22;9417;16.484;102.872;2023-08-06T07:17:43;28.90;85.50
18575;DHT22;9417;16.484;102.872;2023-08-06T07:19:51;28.90;85.30
18575;DHT22;9417;16.484;102.872;2023-08-06T07:22:00;28.90;84.80
18575;DHT22;9417;16.484;102.872;2023-08-06T07:24:08;28.90;84.80
18575;DHT22;9417;16.484;102.872;2023-08-06T07:26:15;29.00;84.80
18575;DHT22;9417;16.484;102.872;2023-08-06T07:28:23;29.00;84.70
18575;DHT22;9417;16.484;102.872;2023-08-06T07:30:30;29.00;84.70
18575;DHT22;9417;16.484;102.872;2023-08-06T07:32:39;29.10;85.00
18575;DHT22;9417;16.484;102.872;2023-08-06T07:34:46;29.10;85.20
18575;DHT22;9417;16.484;102.872;2023-08-06T07:36:54;29.10;85.30
18575;DHT22;9417;16.484;102.872;2023-08-06T07:39:03;29.10;84.90
18575;DHT22;9417;16.484;102.872;2023-08-06T07:41:11;29.20;84.30
18575;DHT22;9417;16.484;102.872;2023-08-06T07:43:18;29.20;84.40
18575;DHT22;9417;16.484;102.872;2023-08-06T07:45:26;29.20;84.60
18575;DHT22;9417;16.484;102.872;2023-08-06T07:47:33;29.20;84.80
18575;DHT22;9417;16.484;102.872;2023-08-06T07:49:41;29.20;85.20
18575;DHT22;9417;16.484;102.872;2023-08-06T07:51:48;29.20;85.20
18575;DHT22;9417;16.484;102.872;2023-08-06T07:53:57;29.20;85.30
18575;DHT22;9417;16.484;102.872;2023-08-06T07:56:06;29.30;85.50
18575;DHT22;9417;16.484;102.872;2023-08-06T07:58:13;29.30;85.40
18575;DHT22;9417;16.484;102.872;2023-08-06T08:00:21;29.30;85.30
18575;DHT22;9417;16.484;102.872;2023-08-06T08:02:28;29.40;85.30
18575;DHT22;9417;16.484;102.872;2023-08-06T08:04:36;29.40;84.90
18575;DHT22;9417;16.484;102.872;2023-08-06T08:06:44;29.40;84.70
18575;DHT22;9417;16.484;102.872;2023-08-06T08:08:52;29.40;84.70
18575;DHT22;9417;16.484;102.872;2023-08-06T08:10:59;29.40;84.70
18575;DHT22;9417;16.484;102.872;2023-08-06T08:13:08;29.40;84.50
18575;DHT22;9417;16.484;102.872;2023-08-06T08:15:16;29.40;84.10
18575;DHT22;9417;16.484;102.872;2023-08-06T08:17:23;29.40;84.40
18575;DHT22;9417;16.484;102.872;2023-08-06T08:19:31;29.40;84.60
18575;DHT22;9417;16.484;102.872;2023-08-06T08:21:38;29.30;84.50
18575;DHT22;9417;16.484;102.872;2023-08-06T08:23:46;29.30;84.60
18575;DHT22;9417;16.484;102.872;2023-08-06T08:25:53;29.30;84.70
18575;DHT22;9417;16.484;102.872;2023-08-06T08:28:00;29.30;84.50
18575;DHT22;9417;16.484;102.872;2023-08-06T08:30:10;29.20;84.70
18575;DHT22;9417;16.484;102.872;2023-08-06T08:32:18;29.20;85.10
18575;DHT22;9417;16.484;102.872;2023-08-06T08:34:25;29.20;85.30
18575;DHT22;9417;16.484;102.872;2023-08-06T08:36:33;29.20;85.40
18575;DHT22;9417;16.484;102.872;2023-08-06T08:38:40;29.20;85.60
18575;DHT22;9417;16.484;102.872;2023-08-06T08:40:51;29.10;85.70
18575;DHT22;9417;16.484;102.872;2023-08-06T08:42:59;29.10;85.90
18575;DHT22;9417;16.484;102.872;2023-08-06T08:45:12;29.00;85.90
18575;DHT22;9417;16.484;102.872;2023-08-06T08:47:20;29.10;86.30
18575;DHT22;9417;16.484;102.872;2023-08-06T08:49:28;29.00;86.70
18575;DHT22;9417;16.484;102.872;2023-08-06T08:51:36;29.00;87.00
18575;DHT22;9417;16.484;102.872;2023-08-06T08:53:45;29.00;87.30
18575;DHT22;9417;16.484;102.872;2023-08-06T08:55:53;29.00;87.70
18575;DHT22;9417;16.484;102.872;2023-08-06T08:58:01;28.90;88.00
18575;DHT22;9417;16.484;102.872;2023-08-06T09:00:11;28.90;88.00
18575;DHT22;9417;16.484;102.872;2023-08-06T09:02:21;28.90;87.80
18575;DHT22;9417;16.484;102.872;2023-08-06T09:04:30;28.90;87.90
18575;DHT22;9417;16.484;102.872;2023-08-06T09:06:41;28.90;88.00
18575;DHT22;9417;16.484;102.872;2023-08-06T09:08:54;28.90;88.20
18575;DHT22;9417;16.484;102.872;2023-08-06T09:11:05;28.90;88.40
18575;DHT22;9417;16.484;102.872;2023-08-06T09:13:16;28.90;88.50
18575;DHT22;9417;16.484;102.872;2023-08-06T09:15:27;28.90;88.50
18575;DHT22;9417;16.484;102.872;2023-08-06T09:17:35;28.90;88.60
18575;DHT22;9417;16.484;102.872;2023-08-06T09:19:43;29.00;88.80
18575;DHT22;9417;16.484;102.872;2023-08-06T09:21:52;29.00;89.10
18575;DHT22;9417;16.484;102.872;2023-08-06T09:24:00;29.00;89.40
18575;DHT22;9417;16.484;102.872;2023-08-06T09:26:13;29.00;89.50
18575;DHT22;9417;16.484;102.872;2023-08-06T09:28:20;29.00;89.40
18575;DHT22;9417;16.484;102.872;2023-08-06T09:30:35;29.10;89.10
18575;DHT22;9417;16.484;102.872;2023-08-06T09:32:49;29.00;88.70
18575;DHT22;9417;16.484;102.872;2023-08-06T09:34:57;29.10;88.60
18575;DHT22;9417;16.484;102.872;2023-08-06T09:37:05;29.10;88.60
18575;DHT22;9417;16.484;102.872;2023-08-06T09:39:16;29.10;88.70
18575;DHT22;9417;16.484;102.872;2023-08-06T09:41:30;29.10;88.60
18575;DHT22;9417;16.484;102.872;2023-08-06T09:43:43;29.10;88.70
18575;DHT22;9417;16.484;102.872;2023-08-06T09:45:52;29.10;88.80
18575;DHT22;9417;16.484;102.872;2023-08-06T09:47:58;29.10;88.90
18575;DHT22;9417;16.484;102.872;2023-08-06T09:50:07;29.10;89.00
18575;DHT22;9417;16.484;102.872;2023-08-06T09:52:21;29.10;89.00
18575;DHT22;9417;16.484;102.872;2023-08-06T09:54:29;29.10;89.10
18575;DHT22;9417;16.484;102.872;2023-08-06T09:56:38;29.10;89.10
18575;DHT22;9417;16.484;102.872;2023-08-06T09:58:47;29.10;89.40
18575;DHT22;9417;16.484;102.872;2023-08-06T10:00:57;29.00;89.80
18575;DHT22;9417;16.484;102.872;2023-08-06T10:03:07;29.00;90.00
18575;DHT22;9417;16.484;102.872;2023-08-06T10:05:15;29.00;90.30
18575;DHT22;9417;16.484;102.872;2023-08-06T10:07:23;29.00;90.40
18575;DHT22;9417;16.484;102.872;2023-08-06T10:09:30;29.00;90.40
18575;DHT22;9417;16.484;102.872;2023-08-06T10:11:38;29.00;90.50
18575;DHT22;9417;16.484;102.872;2023-08-06T10:13:46;28.90;90.60
18575;DHT22;9417;16.484;102.872;2023-08-06T10:15:54;28.90;90.70
18575;DHT22;9417;16.484;102.872;2023-08-06T10:18:03;28.90;90.80
18575;DHT22;9417;16.484;102.872;2023-08-06T10:20:12;28.90;90.80
18575;DHT22;9417;16.484;102.872;2023-08-06T10:22:20;28.90;91.00
18575;DHT22;9417;16.484;102.872;2023-08-06T10:24:28;28.90;91.00
18575;DHT22;9417;16.484;102.872;2023-08-06T10:26:58;28.80;90.90
18575;DHT22;9417;16.484;102.872;2023-08-06T10:29:35;28.80;90.80
18575;DHT22;9417;16.484;102.872;2023-08-06T10:34:05;28.80;90.60
18575;DHT22;9417;16.484;102.872;2023-08-06T10:36:13;28.80;90.90
18575;DHT22;9417;16.484;102.872;2023-08-06T10:38:21;28.80;90.80
18575;DHT22;9417;16.484;102.872;2023-08-06T10:40:31;28.70;90.70
18575;DHT22;9417;16.484;102.872;2023-08-06T10:42:37;28.70;90.60
18575;DHT22;9417;16.484;102.872;2023-08-06T10:45:17;28.70;90.70
18575;DHT22;9417;16.484;102.872;2023-08-06T10:47:27;28.70;90.80
18575;DHT22;9417;16.484;102.872;2023-08-06T10:49:36;28.70;91.10
18575;DHT22;9417;16.484;102.872;2023-08-06T10:51:44;28.70;91.10
18575;DHT22;9417;16.484;102.872;2023-08-06T10:53:52;28.60;91.10
18575;DHT22;9417;16.484;102.872;2023-08-06T10:56:00;28.60;91.00
18575;DHT22;9417;16.484;102.872;2023-08-06T10:58:08;28.60;91.00
18575;DHT22;9417;16.484;102.872;2023-08-06T11:00:15;28.60;91.00
18575;DHT22;9417;16.484;102.872;2023-08-06T11:02:22;28.60;91.10
18575;DHT22;9417;16.484;102.872;2023-08-06T11:04:31;28.50;91.20
18575;DHT22;9417;16.484;102.872;2023-08-06T11:06:43;28.50;91.40
18575;DHT22;9417;16.484;102.872;2023-08-06T11:08:51;28.50;91.40
18575;DHT22;9417;16.484;102.872;2023-08-06T11:11:09;28.50;91.50
18575;DHT22;9417;16.484;102.872;2023-08-06T11:13:18;28.50;91.60
18575;DHT22;9417;16.484;102.872;2023-08-06T11:15:25;28.50;91.70
18575;DHT22;9417;16.484;102.872;2023-08-06T11:17:33;28.50;91.80
18575;DHT22;9417;16.484;102.872;2023-08-06T11:19:42;28.50;92.00
18575;DHT22;9417;16.484;102.872;2023-08-06T11:21:52;28.50;92.30
18575;DHT22;9417;16.484;102.872;2023-08-06T11:24:00;28.40;92.60
18575;DHT22;9417;16.484;102.872;2023-08-06T11:26:08;28.40;92.80
18575;DHT22;9417;16.484;102.872;2023-08-06T11:28:20;28.40;93.20
18575;DHT22;9417;16.484;102.872;2023-08-06T11:30:28;28.40;93.50
18575;DHT22;9417;16.484;102.872;2023-08-06T11:32:46;28.40;93.80
18575;DHT22;9417;16.484;102.872;2023-08-06T11:34:54;28.40;94.00
18575;DHT22;9417;16.484;102.872;2023-08-06T11:37:04;28.40;94.00
18575;DHT22;9417;16.484;102.872;2023-08-06T11:39:12;28.40;94.10
18575;DHT22;9417;16.484;102.872;2023-08-06T11:41:19;28.40;94.20
18575;DHT22;9417;16.484;102.872;2023-08-06T11:43:29;28.30;94.20
18575;DHT22;9417;16.484;102.872;2023-08-06T11:45:38;28.40;94.30
18575;DHT22;9417;16.484;102.872;2023-08-06T11:47:50;28.30;94.30
18575;DHT22;9417;16.484;102.872;2023-08-06T11:49:59;28.30;94.50
18575;DHT22;9417;16.484;102.872;2023-08-06T11:52:18;28.30;94.50
18575;DHT22;9417;16.484;102.872;2023-08-06T11:54:32;28.30;94.60
18575;DHT22;9417;16.484;102.872;2023-08-06T11:56:38;28.20;94.80
18575;DHT22;9417;16.484;102.872;2023-08-06T11:58:46;28.20;95.20
18575;DHT22;9417;16.484;102.872;2023-08-06T12:00:53;28.20;95.40
18575;DHT22;9417;16.484;102.872;2023-08-06T12:03:01;28.20;95.50
18575;DHT22;9417;16.484;102.872;2023-08-06T12:05:12;28.20;95.40
18575;DHT22;9417;16.484;102.872;2023-08-06T12:07:28;28.20;95.70
18575;DHT22;9417;16.484;102.872;2023-08-06T12:09:35;28.10;96.00
18575;DHT22;9417;16.484;102.872;2023-08-06T12:11:43;28.10;96.30
18575;DHT22;9417;16.484;102.872;2023-08-06T12:13:52;28.10;96.40
18575;DHT22;9417;16.484;102.872;2023-08-06T12:15:59;28.10;96.40
18575;DHT22;9417;16.484;102.872;2023-08-06T12:18:06;28.10;96.30
18575;DHT22;9417;16.484;102.872;2023-08-06T12:20:15;28.10;96.30
18575;DHT22;9417;16.484;102.872;2023-08-06T12:22:24;28.10;96.40
18575;DHT22;9417;16.484;102.872;2023-08-06T12:26:58;28.10;96.40
18575;DHT22;9417;16.484;102.872;2023-08-06T12:29:07;28.10;96.40
18575;DHT22;9417;16.484;102.872;2023-08-06T12:31:14;28.10;96.40
18575;DHT22;9417;16.484;102.872;2023-08-06T12:33:22;28.10;96.30
18575;DHT22;9417;16.484;102.872;2023-08-06T12:35:29;28.10;96.30
18575;DHT22;9417;16.484;102.872;2023-08-06T12:37:38;28.10;96.30
18575;DHT22;9417;16.484;102.872;2023-08-06T12:39:47;28.10;96.30
18575;DHT22;9417;16.484;102.872;2023-08-06T12:41:54;28.10;96.30
18575;DHT22;9417;16.484;102.872;2023-08-06T12:44:12;28.10;96.30
18575;DHT22;9417;16.484;102.872;2023-08-06T12:46:19;28.00;96.30
18575;DHT22;9417;16.484;102.872;2023-08-06T12:48:26;28.10;96.20
18575;DHT22;9417;16.484;102.872;2023-08-06T12:50:34;28.10;95.80
18575;DHT22;9417;16.484;102.872;2023-08-06T12:52:43;28.10;95.30
18575;DHT22;9417;16.484;102.872;2023-08-06T12:54:50;28.10;94.80
18575;DHT22;9417;16.484;102.872;2023-08-06T12:56:58;28.10;94.30
18575;DHT22;9417;16.484;102.872;2023-08-06T12:59:05;28.10;93.80
18575;DHT22;9417;16.484;102.872;2023-08-06T13:01:13;28.10;92.70
18575;DHT22;9417;16.484;102.872;2023-08-06T13:03:20;28.10;92.30
18575;DHT22;9417;16.484;102.872;2023-08-06T13:05:28;28.10;91.60
18575;DHT22;9417;16.484;102.872;2023-08-06T13:07:35;28.10;91.20
18575;DHT22;9417;16.484;102.872;2023-08-06T13:09:45;28.10;90.90
18575;DHT22;9417;16.484;102.872;2023-08-06T13:11:53;28.10;90.50
18575;DHT22;9417;16.484;102.872;2023-08-06T13:14:04;28.10;90.30
18575;DHT22;9417;16.484;102.872;2023-08-06T13:16:12;28.10;90.10
18575;DHT22;9417;16.484;102.872;2023-08-06T13:18:18;28.10;90.10
18575;DHT22;9417;16.484;102.872;2023-08-06T13:20:26;28.10;90.00
18575;DHT22;9417;16.484;102.872;2023-08-06T13:22:33;28.10;89.90
18575;DHT22;9417;16.484;102.872;2023-08-06T13:24:40;28.10;89.90